Time;durP1;ratioP1;P1;durP2;ratioP2;P2;SDS_P1;SDS_P2;PMS_P1;PMS_P2;Temp;Humidity;BMP_temperature;BMP_pressure;BME280_temperature;BME280_humidity;BME280_pressure;Samples;Min_cycle;Max_cycle;Signal;HPM_P1;HPM_P2
2021/12/14 00:02:26;;;;;;;5.78;4.15;;;;;;;;;;5116647;28;20027;-81
2021/12/14 00:04:53;;;;;;;5.40;3.78;;;;;;;;;;5115336;28;20433;-81
2021/12/14 00:07:22;;;;;;;5.57;4.72;;;;;;;;;;5116643;28;20024;-80
2021/12/14 00:09:49;;;;;;;5.50;3.53;;;;;;;;;;5116777;28;20028;-81
2021/12/14 00:15:04;;;;;;;4.65;4.07;;;;;;;;;;5116607;28;20394;-79
2021/12/14 00:17:41;;;;;;;4.45;3.15;;;;;;;;;;5116200;28;20028;-80
2021/12/14 00:20:20;;;;;;;4.07;3.30;;;;;;;;;;5115316;28;20019;-78
2021/12/14 00:25:35;;;;;;;4.15;3.67;;;;;;;;;;5116300;28;20497;-80
2021/12/14 00:28:03;;;;;;;5.07;3.25;;;;;;;;;;5116352;28;20022;-78
2021/12/14 00:30:32;;;;;;;4.00;2.97;;;;;;;;;;5116163;28;20032;-80
2021/12/14 00:32:59;;;;;;;5.68;3.67;;;;;;;;;;5116435;28;20028;-80
2021/12/14 00:35:25;;;;;;;4.20;3.40;;;;;;;;;;5115785;28;20051;-83
2021/12/14 00:37:53;;;;;;;4.78;3.28;;;;;;;;;;5115107;28;20056;-77
2021/12/14 00:40:22;;;;;;;4.70;3.65;;;;;;;;;;5114844;28;20031;-80
2021/12/14 00:42:48;;;;;;;4.47;3.28;;;;;;;;;;5114618;28;20106;-83
2021/12/14 00:45:15;;;;;;;4.35;3.20;;;;;;;;;;5115614;28;20461;-80
2021/12/14 00:47:41;;;;;;;5.07;3.35;;;;;;;;;;5115821;28;20020;-87
2021/12/14 00:50:11;;;;;;;4.32;3.70;;;;;;;;;;5115068;28;20496;-83
2021/12/14 00:52:37;;;;;;;5.88;3.33;;;;;;;;;;5115942;28;20024;-84
2021/12/14 00:55:06;;;;;;;4.63;3.42;;;;;;;;;;5115833;28;20023;-81
2021/12/14 00:57:36;;;;;;;5.07;3.85;;;;;;;;;;5114767;28;20032;-79
2021/12/14 01:00:11;;;;;;;5.35;3.63;;;;;;;;;;5115659;28;20048;-78
2021/12/14 01:02:38;;;;;;;4.22;2.95;;;;;;;;;;5114153;28;20019;-78
2021/12/14 01:05:09;;;;;;;3.63;2.90;;;;;;;;;;5115584;28;20466;-80
2021/12/14 01:07:36;;;;;;;4.57;3.10;;;;;;;;;;5114190;28;20038;-80
2021/12/14 01:10:06;;;;;;;3.92;3.50;;;;;;;;;;5117441;27;20072;-82
2021/12/14 01:12:49;;;;;;;5.18;3.58;;;;;;;;;;5136064;27;20058;-82
2021/12/14 01:15:27;;;;;;;3.67;2.90;;;;;;;;;;5136056;27;20023;-79
2021/12/14 01:18:14;;;;;;;4.60;3.08;;;;;;;;;;5136013;27;20026;-83
2021/12/14 01:20:43;;;;;;;5.50;3.03;;;;;;;;;;5134522;27;20115;-81
2021/12/14 01:23:18;;;;;;;4.32;3.20;;;;;;;;;;5136258;27;20491;-83
2021/12/14 01:25:46;;;;;;;3.33;2.50;;;;;;;;;;5135671;27;20027;-81
2021/12/14 01:28:15;;;;;;;3.80;2.97;;;;;;;;;;5135875;27;20019;-82
2021/12/14 01:31:16;;;;;;;3.20;1.90;;;;;;;;;;5135582;27;20030;-78
2021/12/14 01:33:44;;;;;;;4.13;3.30;;;;;;;;;;5133508;27;20046;-79
2021/12/14 01:36:24;;;;;;;3.38;2.28;;;;;;;;;;5135557;27;20027;-78
2021/12/14 01:41:40;;;;;;;4.95;3.25;;;;;;;;;;5113390;27;20027;-81
2021/12/14 01:44:07;;;;;;;4.95;2.55;;;;;;;;;;5134979;27;20118;-79
2021/12/14 01:46:36;;;;;;;4.22;3.17;;;;;;;;;;5135512;27;20031;-83
2021/12/14 01:49:06;;;;;;;4.78;3.00;;;;;;;;;;5133884;27;20034;-78
2021/12/14 01:51:34;;;;;;;3.85;2.42;;;;;;;;;;5134853;27;20078;-83
2021/12/14 01:54:01;;;;;;;4.47;2.55;;;;;;;;;;5134774;27;20031;-80
2021/12/14 01:56:29;;;;;;;3.47;2.75;;;;;;;;;;5135129;27;20054;-79
2021/12/14 01:58:59;;;;;;;3.30;2.53;;;;;;;;;;5135016;27;20098;-79
2021/12/14 02:01:35;;;;;;;3.53;2.45;;;;;;;;;;5135162;27;20099;-85
2021/12/14 02:04:07;;;;;;;3.55;2.17;;;;;;;;;;5135062;27;20069;-84
2021/12/14 02:06:34;;;;;;;5.28;2.67;;;;;;;;;;5135047;27;20019;-81
2021/12/14 02:09:14;;;;;;;3.72;2.95;;;;;;;;;;5133669;27;20070;-79
2021/12/14 02:11:42;;;;;;;4.07;2.65;;;;;;;;;;5135043;27;20023;-82
2021/12/14 02:14:09;;;;;;;3.13;2.60;;;;;;;;;;5134945;27;20069;-81
2021/12/14 02:16:35;;;;;;;3.80;2.33;;;;;;;;;;5135018;27;20399;-79
2021/12/14 02:19:05;;;;;;;2.35;1.60;;;;;;;;;;5134817;27;20030;-81
2021/12/14 02:21:31;;;;;;;4.10;2.45;;;;;;;;;;5134573;27;20019;-80
2021/12/14 02:24:00;;;;;;;3.08;2.28;;;;;;;;;;5134745;27;20034;-77
2021/12/14 02:26:29;;;;;;;3.42;2.70;;;;;;;;;;5134801;27;20042;-79
2021/12/14 02:28:56;;;;;;;3.08;1.95;;;;;;;;;;5134892;27;20370;-80
2021/12/14 02:31:24;;;;;;;4.65;2.38;;;;;;;;;;5134975;27;20038;-78
2021/12/14 02:33:51;;;;;;;2.90;2.15;;;;;;;;;;5134681;27;20026;-77
2021/12/14 02:36:21;;;;;;;4.15;2.72;;;;;;;;;;5134580;27;20027;-77
2021/12/14 02:38:52;;;;;;;5.32;2.15;;;;;;;;;;5134504;27;20023;-81
2021/12/14 02:41:19;;;;;;;4.80;2.75;;;;;;;;;;5134725;27;20554;-78
2021/12/14 02:43:47;;;;;;;5.43;3.22;;;;;;;;;;5134418;27;20355;-82
2021/12/14 02:46:13;;;;;;;4.25;2.97;;;;;;;;;;5132998;28;20051;-81
2021/12/14 02:48:49;;;;;;;3.70;2.63;;;;;;;;;;5134313;28;20031;-85
2021/12/14 02:51:20;;;;;;;2.40;1.92;;;;;;;;;;5134522;28;20028;-80
2021/12/14 02:53:49;;;;;;;4.97;3.10;;;;;;;;;;5134640;28;20042;-78
2021/12/14 02:56:18;;;;;;;5.30;2.65;;;;;;;;;;5133111;28;20027;-80
2021/12/14 02:58:44;;;;;;;3.38;2.30;;;;;;;;;;5134360;28;20034;-82
2021/12/14 03:01:12;;;;;;;4.80;3.22;;;;;;;;;;5134517;28;20027;-78
2021/12/14 03:03:38;;;;;;;4.43;2.95;;;;;;;;;;5133063;28;20118;-81
2021/12/14 03:06:05;;;;;;;3.85;2.50;;;;;;;;;;5136592;27;20023;-79
2021/12/14 03:08:37;;;;;;;5.70;3.67;;;;;;;;;;5138421;27;20030;-82
2021/12/14 03:11:10;;;;;;;3.83;3.15;;;;;;;;;;5138443;27;20110;-82
2021/12/14 03:13:38;;;;;;;5.07;3.30;;;;;;;;;;5138330;27;20023;-82
2021/12/14 03:16:06;;;;;;;3.83;2.55;;;;;;;;;;5138629;27;20362;-83
2021/12/14 03:18:35;;;;;;;5.47;3.97;;;;;;;;;;5138256;27;20098;-79
2021/12/14 03:21:27;;;;;;;5.05;3.42;;;;;;;;;;5138200;27;20037;-80
2021/12/14 03:24:14;;;;;;;5.35;3.30;;;;;;;;;;5134308;27;20040;-78
2021/12/14 03:26:42;;;;;;;4.47;3.20;;;;;;;;;;5137901;27;20122;-80
2021/12/14 03:29:12;;;;;;;6.97;4.45;;;;;;;;;;5138200;27;20027;-75
2021/12/14 03:31:40;;;;;;;6.13;4.05;;;;;;;;;;5137852;27;20038;-78
2021/12/14 03:34:09;;;;;;;5.70;3.70;;;;;;;;;;5137825;27;20030;-83
2021/12/14 03:36:40;;;;;;;4.50;2.65;;;;;;;;;;5137727;27;20550;-82
2021/12/14 03:39:06;;;;;;;4.55;3.22;;;;;;;;;;5136549;27;20019;-78
2021/12/14 03:41:34;;;;;;;5.68;3.67;;;;;;;;;;5137692;27;20102;-78
2021/12/14 03:44:05;;;;;;;7.22;4.28;;;;;;;;;;5137503;27;20082;-77
2021/12/14 03:46:34;;;;;;;6.40;4.38;;;;;;;;;;5136281;27;20069;-78
2021/12/14 03:49:01;;;;;;;5.22;3.50;;;;;;;;;;5137627;27;20203;-85
2021/12/14 03:51:27;;;;;;;4.47;3.33;;;;;;;;;;5137577;27;20027;-79
2021/12/14 03:53:55;;;;;;;5.68;3.90;;;;;;;;;;5137579;27;20027;-82
2021/12/14 03:56:21;;;;;;;4.28;3.38;;;;;;;;;;5137490;27;20058;-83
2021/12/14 03:58:48;;;;;;;5.65;4.22;;;;;;;;;;5137357;27;20023;-80
2021/12/14 04:01:23;;;;;;;6.03;4.03;;;;;;;;;;5137597;27;20035;-81
2021/12/14 04:03:51;;;;;;;6.13;4.38;;;;;;;;;;5137222;27;20036;-81
2021/12/14 04:06:17;;;;;;;8.73;5.00;;;;;;;;;;5137218;27;20023;-78
2021/12/14 04:08:44;;;;;;;7.28;4.25;;;;;;;;;;5137086;27;20492;-78
2021/12/14 04:11:13;;;;;;;5.05;3.60;;;;;;;;;;5137243;27;20488;-79
2021/12/14 04:13:42;;;;;;;6.53;3.63;;;;;;;;;;5137029;27;20362;-78
2021/12/14 04:16:09;;;;;;;6.10;4.65;;;;;;;;;;5136495;27;20469;-76
2021/12/14 04:18:35;;;;;;;12.82;5.03;;;;;;;;;;5136845;27;20023;-77
2021/12/14 04:21:02;;;;;;;4.50;3.25;;;;;;;;;;5136987;27;20427;-79
2021/12/14 04:23:46;;;;;;;6.28;4.18;;;;;;;;;;5135470;27;20477;-80
2021/12/14 04:26:12;;;;;;;;;;;;;;;;;;5137389;27;20054;-80
2021/12/14 04:28:48;;;;;;;6.90;4.55;;;;;;;;;;5136744;27;20304;-81
2021/12/14 04:31:15;;;;;;;6.80;5.10;;;;;;;;;;5136833;27;20068;-80
2021/12/14 04:33:42;;;;;;;5.10;4.00;;;;;;;;;;5136656;27;20034;-81
2021/12/14 04:36:10;;;;;;;6.13;4.63;;;;;;;;;;5135470;27;20027;-79
2021/12/14 04:38:46;;;;;;;4.65;4.07;;;;;;;;;;5136634;27;20027;-79
2021/12/14 04:52:05;;;;;;;6.03;4.40;;;;;;;;;;5136406;27;20568;-81
2021/12/14 04:54:50;;;;;;;5.88;4.07;;;;;;;;;;5134983;27;20027;-76
2021/12/14 04:57:27;;;;;;;5.38;4.20;;;;;;;;;;5136355;27;20015;-79
2021/12/14 04:59:57;;;;;;;5.78;3.97;;;;;;;;;;5134823;27;20030;-77
2021/12/14 05:02:26;;;;;;;8.00;4.47;;;;;;;;;;5136154;27;20073;-76
2021/12/14 05:04:54;;;;;;;5.68;4.07;;;;;;;;;;5134737;27;20129;-78
2021/12/14 05:10:04;;;;;;;7.60;3.72;;;;;;;;;;5138092;27;20035;-81
2021/12/14 05:12:32;;;;;;;6.65;3.90;;;;;;;;;;5138431;27;20118;-76
2021/12/14 05:15:02;;;;;;;6.85;4.15;;;;;;;;;;5138423;27;20057;-78
2021/12/14 05:17:32;;;;;;;4.78;3.33;;;;;;;;;;5136833;27;20023;-78
2021/12/14 05:19:58;;;;;;;7.03;5.10;;;;;;;;;;5140169;27;20030;-78
2021/12/14 05:22:26;;;;;;;6.20;4.18;;;;;;;;;;5137238;27;20022;-83
2021/12/14 05:25:00;;;;;;;7.15;4.15;;;;;;;;;;5138361;27;20027;-78
2021/12/14 05:27:34;;;;;;;6.45;4.15;;;;;;;;;;5135692;27;20059;-79
2021/12/14 05:30:06;;;;;;;5.10;3.65;;;;;;;;;;5135452;27;20032;-84
2021/12/14 05:32:33;;;;;;;5.68;4.40;;;;;;;;;;5136800;27;20031;-80
2021/12/14 05:35:02;;;;;;;5.75;3.58;;;;;;;;;;5135515;27;20030;-79
2021/12/14 05:37:33;;;;;;;5.88;4.43;;;;;;;;;;5135673;27;20023;-79
2021/12/14 05:40:04;;;;;;;5.47;3.63;;;;;;;;;;5135517;27;20161;-77
2021/12/14 05:45:17;;;;;;;6.65;3.92;;;;;;;;;;5135092;27;20501;-85
2021/12/14 05:47:48;;;;;;;6.72;3.38;;;;;;;;;;5134025;27;20056;-78
2021/12/14 05:50:16;;;;;;;5.90;3.20;;;;;;;;;;5135118;27;20058;-78
2021/12/14 05:52:42;;;;;;;3.92;3.15;;;;;;;;;;5135037;27;20024;-80
2021/12/14 05:55:09;;;;;;;4.70;3.38;;;;;;;;;;5135244;27;20466;-79
2021/12/14 05:57:35;;;;;;;6.13;3.70;;;;;;;;;;5135097;27;20064;-79
2021/12/14 06:00:01;;;;;;;4.97;3.60;;;;;;;;;;5135186;27;20106;-79
2021/12/14 06:02:27;;;;;;;6.63;4.28;;;;;;;;;;5133806;27;20118;-82
2021/12/14 06:04:57;;;;;;;5.10;3.42;;;;;;;;;;5135076;27;20031;-77
2021/12/14 06:07:24;;;;;;;5.43;3.67;;;;;;;;;;5134883;27;20027;-80
2021/12/14 06:09:54;;;;;;;7.07;3.95;;;;;;;;;;5135052;27;20031;-78
2021/12/14 06:12:29;;;;;;;5.60;3.80;;;;;;;;;;5135016;27;20434;-79
2021/12/14 06:14:59;;;;;;;5.55;3.53;;;;;;;;;;5134899;27;20544;-81
2021/12/14 06:17:30;;;;;;;5.15;3.17;;;;;;;;;;5134863;27;20047;-82
2021/12/14 06:20:01;;;;;;;5.93;3.22;;;;;;;;;;5134741;27;20020;-80
2021/12/14 06:22:36;;;;;;;5.38;3.55;;;;;;;;;;5105090;27;20028;-77
2021/12/14 06:25:14;;;;;;;6.15;3.92;;;;;;;;;;5109567;28;20486;-80
2021/12/14 06:27:40;;;;;;;4.55;3.15;;;;;;;;;;5110321;28;20084;-83
2021/12/14 06:30:12;;;;;;;9.77;3.25;;;;;;;;;;5099810;28;20039;-82
2021/12/14 06:32:44;;;;;;;7.18;4.40;;;;;;;;;;5099990;28;20027;-81
2021/12/14 06:35:15;;;;;;;5.47;3.45;;;;;;;;;;5111725;28;20023;-79
2021/12/14 06:40:56;;;;;;;4.47;3.28;;;;;;;;;;5103271;28;20482;-82
2021/12/14 06:43:41;;;;;;;10.55;6.47;;;;;;;;;;5111894;28;20494;-76
2021/12/14 06:46:09;;;;;;;6.50;3.92;;;;;;;;;;5111317;28;20525;-80
2021/12/14 06:48:38;;;;;;;6.05;4.13;;;;;;;;;;5109750;28;20058;-79
2021/12/14 06:51:06;;;;;;;6.18;3.92;;;;;;;;;;5112138;28;20030;-81
2021/12/14 06:53:34;;;;;;;7.13;4.88;;;;;;;;;;5110960;28;20038;-74
2021/12/14 06:56:01;;;;;;;6.13;5.18;;;;;;;;;;5111901;28;20501;-79
2021/12/14 06:58:29;;;;;;;7.32;4.82;;;;;;;;;;5111707;28;20028;-79
2021/12/14 07:01:14;;;;;;;8.18;4.88;;;;;;;;;;5111430;28;20497;-81
2021/12/14 07:03:39;;;;;;;;;;;;;;;;;;5111777;28;20028;-79
2021/12/14 07:06:06;;;;;;;6.72;4.05;;;;;;;;;;5111731;28;19949;-81
2021/12/14 07:08:33;;;;;;;6.57;4.53;;;;;;;;;;5113140;28;20507;-76
2021/12/14 07:11:01;;;;;;;7.30;5.18;;;;;;;;;;5113618;28;20531;-81
2021/12/14 07:13:36;;;;;;;9.30;5.55;;;;;;;;;;5112353;28;20035;-76
2021/12/14 07:16:18;;;;;;;14.88;5.40;;;;;;;;;;5112171;28;20039;-79
2021/12/14 07:18:50;;;;;;;6.90;4.78;;;;;;;;;;5111404;28;20036;-80
2021/12/14 07:21:33;;;;;;;7.15;4.43;;;;;;;;;;5112065;28;20066;-75
2021/12/14 07:23:59;;;;;;;7.85;4.72;;;;;;;;;;5112831;28;20399;-80
2021/12/14 07:26:25;;;;;;;8.00;5.97;;;;;;;;;;5111875;28;20071;-74
2021/12/14 07:28:51;;;;;;;6.95;4.40;;;;;;;;;;5112432;28;20470;-77
2021/12/14 07:31:19;;;;;;;9.85;5.60;;;;;;;;;;5110782;28;20081;-80
2021/12/14 07:33:47;;;;;;;6.25;4.28;;;;;;;;;;5110877;28;20470;-81
2021/12/14 07:36:20;;;;;;;7.85;5.20;;;;;;;;;;5110911;28;20024;-78
2021/12/14 07:38:46;;;;;;;7.75;5.43;;;;;;;;;;5111321;28;20032;-76
2021/12/14 07:41:31;;;;;;;7.90;5.50;;;;;;;;;;5111425;28;20068;-79
2021/12/14 07:43:57;;;;;;;7.18;5.32;;;;;;;;;;5111256;28;20106;-76
2021/12/14 07:46:23;;;;;;;9.30;5.70;;;;;;;;;;5110826;28;20127;-76
2021/12/14 07:48:52;;;;;;;9.70;5.55;;;;;;;;;;5111342;28;20107;-81
2021/12/14 07:51:20;;;;;;;8.93;5.80;;;;;;;;;;5111830;28;20098;-78
2021/12/14 07:53:48;;;;;;;10.75;6.30;;;;;;;;;;5114731;28;20498;-75
2021/12/14 07:56:29;;;;;;;7.65;5.22;;;;;;;;;;5109860;28;20537;-77
2021/12/14 07:58:57;;;;;;;8.80;5.90;;;;;;;;;;5114337;28;20020;-79
2021/12/14 08:01:23;;;;;;;5.82;4.70;;;;;;;;;;5112535;28;20020;-78
2021/12/14 08:04:00;;;;;;;7.13;5.38;;;;;;;;;;5114473;28;20114;-81
2021/12/14 08:06:26;;;;;;;7.47;4.85;;;;;;;;;;5114653;27;20027;-81
2021/12/14 08:08:56;;;;;;;7.70;5.57;;;;;;;;;;5114251;28;20028;-79
2021/12/14 08:14:29;;;;;;;7.13;5.50;;;;;;;;;;5113615;28;20038;-82
2021/12/14 08:17:10;;;;;;;8.57;4.82;;;;;;;;;;5114213;28;20059;-76
2021/12/14 08:19:38;;;;;;;7.20;5.07;;;;;;;;;;5114073;28;20474;-77
2021/12/14 08:22:07;;;;;;;7.47;5.28;;;;;;;;;;5113930;28;20089;-84
2021/12/14 08:24:35;;;;;;;12.00;7.13;;;;;;;;;;5113784;28;20046;-78
2021/12/14 08:27:03;;;;;;;8.93;7.25;;;;;;;;;;5113957;28;20474;-81
2021/12/14 08:29:31;;;;;;;10.55;6.55;;;;;;;;;;5113538;28;20036;-76
2021/12/14 08:32:20;;;;;;;11.43;7.80;;;;;;;;;;5106892;28;20024;-78
2021/12/14 08:34:50;;;;;;;8.70;5.65;;;;;;;;;;5110547;28;20031;-78
2021/12/14 08:37:16;;;;;;;11.60;6.70;;;;;;;;;;5095826;28;20372;-78
2021/12/14 08:39:46;;;;;;;12.20;7.63;;;;;;;;;;5091644;28;20024;-75
2021/12/14 08:42:17;;;;;;;10.23;6.40;;;;;;;;;;5093403;28;20040;-77
2021/12/14 08:44:53;;;;;;;11.18;7.15;;;;;;;;;;5103559;28;20083;-73
2021/12/14 08:47:39;;;;;;;9.55;6.45;;;;;;;;;;5093057;28;20482;-75
2021/12/14 08:50:08;;;;;;;8.25;5.20;;;;;;;;;;5092979;28;20039;-81
2021/12/14 08:52:34;;;;;;;9.80;6.32;;;;;;;;;;5093168;28;20032;-76
2021/12/14 08:55:03;;;;;;;7.05;4.45;;;;;;;;;;5092964;28;20488;-77
2021/12/14 08:57:30;;;;;;;7.80;4.93;;;;;;;;;;5093187;28;20115;-75
2021/12/14 09:00:00;;;;;;;10.20;7.75;;;;;;;;;;5102802;28;20059;-82
2021/12/14 09:02:29;;;;;;;6.72;5.07;;;;;;;;;;5113644;28;20123;-85
2021/12/14 09:05:13;;;;;;;8.90;6.18;;;;;;;;;;5113336;28;20497;-76
2021/12/14 09:07:40;;;;;;;9.63;7.45;;;;;;;;;;5113655;28;20488;-74
2021/12/14 09:10:09;;;;;;;11.38;6.13;;;;;;;;;;5112954;28;20426;-77
2021/12/14 09:12:39;;;;;;;11.60;7.57;;;;;;;;;;5113047;28;20137;-82
2021/12/14 09:15:08;;;;;;;11.45;6.82;;;;;;;;;;5111663;28;20842;-83
2021/12/14 09:17:35;;;;;;;14.25;5.80;;;;;;;;;;5112167;28;20032;-77
2021/12/14 09:20:04;;;;;;;9.32;6.57;;;;;;;;;;5112840;28;20034;-82
2021/12/14 09:22:35;;;;;;;9.82;6.70;;;;;;;;;;5112713;28;20036;-80
2021/12/14 09:25:02;;;;;;;12.25;8.35;;;;;;;;;;5112831;28;20087;-82
2021/12/14 09:27:30;;;;;;;10.48;6.40;;;;;;;;;;5112712;28;20027;-78
2021/12/14 09:29:57;;;;;;;8.88;7.13;;;;;;;;;;5113825;28;20103;-78
2021/12/14 09:32:27;;;;;;;10.73;7.00;;;;;;;;;;5112792;28;20031;-76
2021/12/14 09:34:54;;;;;;;8.77;6.03;;;;;;;;;;5105006;28;20028;-79
2021/12/14 09:37:39;;;;;;;9.18;6.40;;;;;;;;;;5098622;28;20031;-79
2021/12/14 09:40:08;;;;;;;12.25;7.65;;;;;;;;;;5111697;28;20432;-82
2021/12/14 09:42:35;;;;;;;8.07;5.78;;;;;;;;;;5110630;28;20036;-80
2021/12/14 09:45:08;;;;;;;9.13;6.68;;;;;;;;;;5110427;28;20122;-79
2021/12/14 09:47:37;;;;;;;11.32;7.55;;;;;;;;;;5113426;28;20054;-76
2021/12/14 09:50:17;;;;;;;12.50;8.02;;;;;;;;;;5112540;28;20026;-79
2021/12/14 09:52:44;;;;;;;12.38;7.95;;;;;;;;;;5110661;28;20034;-76
2021/12/14 09:55:15;;;;;;;11.95;8.02;;;;;;;;;;5112227;28;20032;-78
2021/12/14 09:57:44;;;;;;;10.77;6.43;;;;;;;;;;5112097;28;20157;-72
2021/12/14 10:00:25;;;;;;;10.93;7.32;;;;;;;;;;5111250;28;20071;-77
2021/12/14 10:02:52;;;;;;;14.98;9.52;;;;;;;;;;5109175;28;20027;-77
2021/12/14 10:05:21;;;;;;;12.73;8.55;;;;;;;;;;5108888;28;20501;-75
2021/12/14 10:07:48;;;;;;;12.98;9.70;;;;;;;;;;5111500;28;20023;-77
2021/12/14 10:10:17;;;;;;;9.40;6.43;;;;;;;;;;5110785;28;20054;-79
2021/12/14 10:12:51;;;;;;;9.55;7.25;;;;;;;;;;5110411;28;20435;-78
2021/12/14 10:15:20;;;;;;;14.52;8.00;;;;;;;;;;5111781;28;20110;-82
2021/12/14 10:17:47;;;;;;;12.85;8.70;;;;;;;;;;5112409;28;20106;-78
2021/12/14 10:20:16;;;;;;;10.18;7.53;;;;;;;;;;5110016;28;20556;-78
2021/12/14 10:22:43;;;;;;;10.63;7.82;;;;;;;;;;5108747;28;20050;-74
2021/12/14 10:25:12;;;;;;;9.93;6.82;;;;;;;;;;5110989;28;20603;-77
2021/12/14 10:27:38;;;;;;;10.55;7.35;;;;;;;;;;5108500;28;20047;-77
2021/12/14 10:30:14;;;;;;;9.13;6.00;;;;;;;;;;5110444;28;20024;-77
2021/12/14 10:32:41;;;;;;;13.60;8.82;;;;;;;;;;5108381;28;20054;-84
2021/12/14 10:35:20;;;;;;;10.27;7.75;;;;;;;;;;5110882;28;20031;-82
2021/12/14 10:37:57;;;;;;;11.85;8.15;;;;;;;;;;5109582;28;20038;-82
2021/12/14 10:43:15;;;;;;;12.70;9.77;;;;;;;;;;5109683;28;20369;-80
2021/12/14 10:46:02;;;;;;;9.85;7.75;;;;;;;;;;5108171;28;20106;-78
2021/12/14 10:48:30;;;;;;;10.43;7.20;;;;;;;;;;5109041;28;20141;-78
2021/12/14 10:50:57;;;;;;;10.50;7.40;;;;;;;;;;5110801;28;20088;-75
2021/12/14 10:53:25;;;;;;;12.80;8.52;;;;;;;;;;5110931;28;20367;-78
2021/12/14 10:55:58;;;;;;;9.75;6.78;;;;;;;;;;5105302;28;20153;-83
2021/12/14 10:58:26;;;;;;;10.15;7.32;;;;;;;;;;5110364;28;20042;-80
2021/12/14 11:00:52;;;;;;;9.85;8.27;;;;;;;;;;5111932;28;20028;-81
2021/12/14 11:03:21;;;;;;;9.82;7.13;;;;;;;;;;5111098;28;20099;-78
2021/12/14 11:05:52;;;;;;;10.10;7.40;;;;;;;;;;5110653;28;20050;-81
2021/12/14 11:11:07;;;;;;;10.35;7.95;;;;;;;;;;5110976;28;20594;-79
2021/12/14 11:13:52;;;;;;;9.43;7.03;;;;;;;;;;5111158;28;20458;-77
2021/12/14 11:16:21;;;;;;;;;;;;;;;;;;5112261;28;20024;-83
2021/12/14 11:18:48;;;;;;;10.98;7.03;;;;;;;;;;5110230;28;20006;-79
2021/12/14 11:21:16;;;;;;;11.13;9.00;;;;;;;;;;5110993;28;20038;-79
2021/12/14 11:23:46;;;;;;;9.52;6.10;;;;;;;;;;5110866;28;20090;-77
2021/12/14 11:26:14;;;;;;;9.45;7.85;;;;;;;;;;5108601;28;20047;-78
2021/12/14 11:29:02;;;;;;;9.73;7.20;;;;;;;;;;5115363;28;20019;-79
2021/12/14 11:31:31;;;;;;;8.32;6.15;;;;;;;;;;5114526;28;20051;-78
2021/12/14 11:34:02;;;;;;;12.05;7.30;;;;;;;;;;5114331;28;20406;-79
2021/12/14 11:36:33;;;;;;;12.82;9.52;;;;;;;;;;5114639;28;20020;-81
2021/12/14 11:39:07;;;;;;;11.38;8.73;;;;;;;;;;5115263;28;20034;-82
2021/12/14 11:41:37;;;;;;;12.23;7.95;;;;;;;;;;5114630;28;20103;-76
2021/12/14 11:44:03;;;;;;;15.10;10.65;;;;;;;;;;5111931;28;20031;-82
2021/12/14 11:46:32;;;;;;;11.43;8.65;;;;;;;;;;5108378;28;20041;-75
2021/12/14 11:49:02;;;;;;;10.55;8.55;;;;;;;;;;5093777;28;20028;-76
2021/12/14 11:51:31;;;;;;;11.30;8.18;;;;;;;;;;5094790;28;20024;-78
2021/12/14 11:54:00;;;;;;;11.77;8.80;;;;;;;;;;5094850;28;20024;-81
2021/12/14 11:56:27;;;;;;;10.55;8.45;;;;;;;;;;5102408;28;20081;-76
2021/12/14 11:58:56;;;;;;;16.20;7.70;;;;;;;;;;5114629;28;20035;-80
2021/12/14 12:01:30;;;;;;;13.13;7.85;;;;;;;;;;5114251;28;20027;-77
2021/12/14 12:04:06;;;;;;;12.75;9.50;;;;;;;;;;5112960;28;20493;-84
2021/12/14 12:06:46;;;;;;;13.27;9.25;;;;;;;;;;5094780;28;20383;-78
2021/12/14 12:12:03;;;;;;;13.48;7.50;;;;;;;;;;5114258;28;20054;-79
2021/12/14 12:14:35;;;;;;;10.50;8.35;;;;;;;;;;5114032;28;20031;-78
2021/12/14 12:17:10;;;;;;;14.38;11.50;;;;;;;;;;5114489;28;20039;-81
2021/12/14 12:19:37;;;;;;;13.90;9.30;;;;;;;;;;5114291;28;20027;-81
2021/12/14 12:22:18;;;;;;;15.70;9.57;;;;;;;;;;5108898;28;20424;-79
2021/12/14 12:25:02;;;;;;;13.18;9.98;;;;;;;;;;5104208;28;20213;-77
2021/12/14 12:27:39;;;;;;;11.85;9.52;;;;;;;;;;5093909;28;20024;-81
2021/12/14 12:30:05;;;;;;;10.88;7.70;;;;;;;;;;5094105;28;20090;-79
2021/12/14 12:32:32;;;;;;;14.55;10.32;;;;;;;;;;5096403;28;20111;-84
2021/12/14 12:34:59;;;;;;;16.00;10.18;;;;;;;;;;5112689;28;20046;-80
2021/12/14 12:37:44;;;;;;;14.05;9.45;;;;;;;;;;5114770;28;20032;-82
2021/12/14 12:40:12;;;;;;;12.93;8.73;;;;;;;;;;5114848;28;20020;-81
2021/12/14 12:42:39;;;;;;;12.40;8.85;;;;;;;;;;5114848;28;20080;-78
2021/12/14 12:45:09;;;;;;;16.77;10.75;;;;;;;;;;5114026;27;20048;-80
2021/12/14 12:47:35;;;;;;;16.13;9.95;;;;;;;;;;5114543;28;20073;-76
2021/12/14 12:50:03;;;;;;;16.02;10.60;;;;;;;;;;5113330;28;20063;-78
2021/12/14 12:52:31;;;;;;;16.45;11.75;;;;;;;;;;5114034;28;20035;-80
2021/12/14 12:55:08;;;;;;;13.27;10.05;;;;;;;;;;5112496;28;20024;-82
2021/12/14 12:57:37;;;;;;;14.48;11.27;;;;;;;;;;5114880;28;20024;-78
2021/12/14 13:00:09;;;;;;;16.13;11.35;;;;;;;;;;5114719;28;20035;-79
2021/12/14 13:02:46;;;;;;;13.65;10.48;;;;;;;;;;5114552;28;20073;-78
2021/12/14 13:05:21;;;;;;;17.70;11.35;;;;;;;;;;5113791;28;20044;-77
2021/12/14 13:07:47;;;;;;;14.30;9.90;;;;;;;;;;5113801;27;20103;-78
2021/12/14 13:10:22;;;;;;;15.82;10.73;;;;;;;;;;5113410;28;20059;-81
2021/12/14 13:12:52;;;;;;;16.98;11.52;;;;;;;;;;5112756;28;20032;-78
2021/12/14 13:18:31;;;;;;;17.67;12.63;;;;;;;;;;5114660;28;20496;-80
2021/12/14 13:21:05;;;;;;;15.63;10.45;;;;;;;;;;5113143;28;20527;-79
2021/12/14 13:23:46;;;;;;;18.20;13.90;;;;;;;;;;5100256;28;20035;-79
2021/12/14 13:26:33;;;;;;;17.33;11.85;;;;;;;;;;5113740;28;20101;-85
2021/12/14 13:29:01;;;;;;;20.60;12.90;;;;;;;;;;5113635;28;20085;-80
2021/12/14 13:31:46;;;;;;;18.27;13.50;;;;;;;;;;5113858;28;20039;-78
2021/12/14 13:34:14;;;;;;;16.98;10.85;;;;;;;;;;5113703;28;20478;-79
2021/12/14 13:36:41;;;;;;;15.73;10.73;;;;;;;;;;5112111;28;20436;-78
2021/12/14 13:39:09;;;;;;;16.88;11.38;;;;;;;;;;5113681;28;20028;-79
2021/12/14 13:41:54;;;;;;;16.08;10.55;;;;;;;;;;5112601;28;20102;-80
2021/12/14 13:44:20;;;;;;;;;;;;;;;;;;5114130;28;20075;-79
2021/12/14 13:46:46;;;;;;;14.30;9.05;;;;;;;;;;5113488;28;19951;-83
2021/12/14 13:49:13;;;;;;;19.35;12.70;;;;;;;;;;5110801;28;20024;-80
2021/12/14 13:51:39;;;;;;;17.95;12.95;;;;;;;;;;5113399;28;20094;-78
2021/12/14 13:54:06;;;;;;;15.20;10.82;;;;;;;;;;5113514;28;20427;-79
2021/12/14 13:56:34;;;;;;;16.95;11.45;;;;;;;;;;5112435;28;20030;-78
2021/12/14 13:59:03;;;;;;;17.55;12.32;;;;;;;;;;5112176;28;20471;-77
2021/12/14 14:01:41;;;;;;;16.35;11.20;;;;;;;;;;5113308;28;20638;-76
2021/12/14 14:04:09;;;;;;;19.65;13.00;;;;;;;;;;5113232;28;20043;-79
2021/12/14 14:06:36;;;;;;;25.60;16.77;;;;;;;;;;5113560;28;20069;-78
2021/12/14 14:09:07;;;;;;;19.67;12.60;;;;;;;;;;5113232;28;20036;-79
2021/12/14 14:11:52;;;;;;;16.83;11.50;;;;;;;;;;5113594;28;20027;-80
2021/12/14 14:14:18;;;;;;;;;;;;;;;;;;5112822;28;20032;-80
2021/12/14 14:16:58;;;;;;;19.25;12.60;;;;;;;;;;5113290;28;20373;-81
2021/12/14 14:19:26;;;;;;;18.08;11.63;;;;;;;;;;5113563;28;20024;-78
2021/12/14 14:21:57;;;;;;;18.77;11.88;;;;;;;;;;5112332;28;20023;-80
2021/12/14 14:24:31;;;;;;;19.75;14.25;;;;;;;;;;5113126;28;20506;-84
2021/12/14 14:26:57;;;;;;;23.67;16.23;;;;;;;;;;5113101;28;20054;-82
2021/12/14 14:29:24;;;;;;;18.95;12.50;;;;;;;;;;5112828;28;20042;-82
2021/12/14 14:34:54;;;;;;;17.50;12.30;;;;;;;;;;5113621;28;20058;-78
2021/12/14 14:37:25;;;;;;;22.65;15.43;;;;;;;;;;5113520;28;20074;-78
2021/12/14 14:39:53;;;;;;;18.00;12.43;;;;;;;;;;5111811;28;20031;-78
2021/12/14 14:42:30;;;;;;;24.63;17.75;;;;;;;;;;5113551;28;20019;-78
2021/12/14 14:44:58;;;;;;;22.50;13.98;;;;;;;;;;5113410;28;20043;-84
2021/12/14 14:47:44;;;;;;;20.45;14.68;;;;;;;;;;5112678;28;20023;-79
2021/12/14 14:50:17;;;;;;;18.35;11.60;;;;;;;;;;5112521;28;20031;-78
2021/12/14 14:53:01;;;;;;;22.95;13.93;;;;;;;;;;5113883;28;20069;-78
2021/12/14 14:55:33;;;;;;;20.00;11.98;;;;;;;;;;5113640;28;20103;-81
2021/12/14 14:58:00;;;;;;;20.50;13.55;;;;;;;;;;5114368;28;20382;-80
2021/12/14 15:00:46;;;;;;;17.20;12.40;;;;;;;;;;5114892;28;20027;-76
2021/12/14 15:03:15;;;;;;;22.63;16.67;;;;;;;;;;5117775;28;20474;-81
2021/12/14 15:05:50;;;;;;;16.80;11.13;;;;;;;;;;5117628;28;20035;-78
2021/12/14 15:08:19;;;;;;;17.33;11.88;;;;;;;;;;5117891;28;20020;-79
2021/12/14 15:10:51;;;;;;;26.58;15.80;;;;;;;;;;5118186;28;20478;-80
2021/12/14 15:13:21;;;;;;;16.80;11.07;;;;;;;;;;5119422;28;20023;-80
2021/12/14 15:16:09;;;;;;;24.20;15.15;;;;;;;;;;5119391;28;20030;-80
2021/12/14 15:18:55;;;;;;;22.98;16.55;;;;;;;;;;5115410;28;20171;-81
2021/12/14 15:21:29;;;;;;;19.33;13.68;;;;;;;;;;5117168;28;20474;-79
2021/12/14 15:23:56;;;;;;;25.70;15.35;;;;;;;;;;5116448;28;20023;-79
2021/12/14 15:26:23;;;;;;;23.02;14.73;;;;;;;;;;5116817;28;20085;-77
2021/12/14 15:29:07;;;;;;;22.60;14.68;;;;;;;;;;5116931;28;20034;-76
2021/12/14 15:31:34;;;;;;;21.08;14.25;;;;;;;;;;5116796;28;20038;-79
2021/12/14 15:34:00;;;;;;;23.73;13.65;;;;;;;;;;5116898;28;20114;-77
2021/12/14 15:36:27;;;;;;;22.02;14.38;;;;;;;;;;5117229;28;20024;-77
2021/12/14 15:38:59;;;;;;;23.50;14.70;;;;;;;;;;5116843;28;20351;-82
2021/12/14 15:41:28;;;;;;;22.40;15.80;;;;;;;;;;5116653;28;20055;-78
2021/12/14 15:44:00;;;;;;;23.02;15.68;;;;;;;;;;5117068;28;20031;-78